Time;durP1;ratioP1;P1;durP2;ratioP2;P2;SDS_P1;SDS_P2;PMS_P1;PMS_P2;Temp;Humidity;BMP_temperature;BMP_pressure;BME280_temperature;BME280_humidity;BME280_pressure;Samples;Min_cycle;Max_cycle;Signal;HPM_P1;HPM_P2
2022/02/15 00:00:50;;;;;;;98.79;57.59;;;;;;;-0.75;64.03;102187.97;460943;114;923057;-78
2022/02/15 00:01:53;;;;;;;108.52;57.69;;;;;;;-0.76;64.01;102188.93;462527;114;930474;-78
2022/02/15 00:02:57;;;;;;;100.78;58.12;;;;;;;-0.76;64.05;102189.79;461490;114;930630;-79
2022/02/15 00:04:00;;;;;;;92.90;54.79;;;;;;;-0.77;64.02;102189.91;461485;114;930923;-79
2022/02/15 00:05:03;;;;;;;98.91;55.19;;;;;;;-0.78;64.11;102188.20;461139;114;923222;-79
2022/02/15 00:06:06;;;;;;;100.81;57.25;;;;;;;-0.78;64.26;102193.55;461533;113;922703;-80
2022/02/15 00:07:10;;;;;;;94.65;55.18;;;;;;;-0.78;64.38;102183.70;459905;114;930566;-79
2022/02/15 00:08:13;;;;;;;99.64;54.44;;;;;;;-0.76;64.43;102183.57;451424;116;922822;-80
2022/02/15 00:09:16;;;;;;;97.86;56.63;;;;;;;-0.78;64.38;102181.02;452190;116;922961;-79
2022/02/15 00:10:21;;;;;;;98.00;54.33;;;;;;;-0.77;64.35;102188.06;461491;114;922559;-79
2022/02/15 00:11:26;;;;;;;99.79;51.78;;;;;;;-0.79;64.37;102181.97;460262;114;922544;-80
2022/02/15 00:12:29;;;;;;;95.56;53.80;;;;;;;-0.79;64.36;102183.80;460008;113;923163;-79
2022/02/15 00:13:32;;;;;;;96.26;54.80;;;;;;;-0.80;64.33;102182.93;459749;114;922894;-79
2022/02/15 00:14:35;;;;;;;97.23;53.77;;;;;;;-0.81;64.40;102175.85;460514;113;922570;-78
2022/02/15 00:15:38;;;;;;;93.03;51.74;;;;;;;-0.81;64.47;102174.99;461112;114;922770;-80
2022/02/15 00:16:41;;;;;;;94.16;54.61;;;;;;;-0.81;64.51;102178.53;461614;113;922584;-79
2022/02/15 00:17:44;;;;;;;88.61;51.74;;;;;;;-0.81;64.52;102175.85;462009;114;922590;-78
2022/02/15 00:18:47;;;;;;;96.43;53.61;;;;;;;-0.80;64.50;102179.39;459678;114;922914;-78
2022/02/15 00:19:50;;;;;;;98.56;54.31;;;;;;;-0.80;64.56;102176.71;461199;114;923061;-78
2022/02/15 00:20:53;;;;;;;102.40;55.28;;;;;;;-0.81;64.47;102166.95;461949;114;922633;-79
2022/02/15 00:21:57;;;;;;;95.68;54.78;;;;;;;-0.84;64.39;102168.03;461194;114;922592;-77
2022/02/15 00:23:00;;;;;;;86.26;53.14;;;;;;;-0.85;64.41;102174.35;462284;114;922524;-77
2022/02/15 00:24:03;;;;;;;92.35;55.27;;;;;;;-0.87;64.42;102170.91;460920;112;922599;-79
2022/02/15 00:25:07;;;;;;;96.11;54.44;;;;;;;-0.88;64.46;102167.36;452539;116;922597;-79
2022/02/15 00:26:11;;;;;;;89.26;53.32;;;;;;;-0.89;64.54;102173.70;461809;113;922638;-79
2022/02/15 00:27:14;;;;;;;93.81;55.59;;;;;;;-0.89;64.61;102162.14;461743;114;922647;-79
2022/02/15 00:28:17;;;;;;;102.79;56.44;;;;;;;-0.86;64.68;102172.63;461531;114;922859;-80
2022/02/15 00:29:21;;;;;;;97.99;53.89;;;;;;;-0.86;64.72;102162.78;461136;113;922531;-79
2022/02/15 00:30:26;;;;;;;98.22;54.56;;;;;;;-0.83;64.70;102164.41;461765;114;922570;-79
2022/02/15 00:31:30;;;;;;;102.18;54.98;;;;;;;-0.82;64.66;102160.73;462718;114;922728;-80
2022/02/15 00:32:35;;;;;;;98.27;57.91;;;;;;;-0.81;64.62;102157.11;452049;116;923331;-79
2022/02/15 00:33:38;;;;;;;107.94;60.53;;;;;;;-0.81;64.65;102154.43;452499;114;922723;-79
2022/02/15 00:34:41;;;;;;;98.74;57.24;;;;;;;-0.79;64.55;102162.37;459814;114;922834;-77
2022/02/15 00:35:45;;;;;;;107.99;63.04;;;;;;;-0.80;64.47;102157.97;451413;116;922550;-80
2022/02/15 00:36:49;;;;;;;108.64;63.72;;;;;;;-0.81;64.41;102164.28;460570;114;922920;-80
2022/02/15 00:37:52;;;;;;;98.64;60.33;;;;;;;-0.82;64.31;102165.23;460832;113;923014;-78
2022/02/15 00:38:57;;;;;;;102.58;58.68;;;;;;;-0.83;64.32;102166.22;460468;114;922652;-79
2022/02/15 00:40:00;;;;;;;104.46;57.68;;;;;;;-0.86;64.37;102162.78;462720;114;922840;-79
2022/02/15 00:41:07;;;;;;;103.15;59.03;;;;;;;-0.86;64.42;102167.27;461287;114;922598;-77
2022/02/15 00:42:10;;;;;;;107.67;61.15;;;;;;;-0.87;64.42;102169.09;460190;113;922651;-80
2022/02/15 00:43:13;;;;;;;105.46;61.96;;;;;;;-0.87;64.42;102168.23;462234;114;922689;-79
2022/02/15 00:44:16;;;;;;;105.56;60.33;;;;;;;-0.88;64.34;102158.47;461353;114;922948;-79
2022/02/15 00:45:19;;;;;;;104.61;59.71;;;;;;;-0.88;64.45;102163.83;461213;114;923151;-78
2022/02/15 00:46:24;;;;;;;106.52;59.88;;;;;;;-0.90;64.37;102163.95;461008;113;922969;-78
2022/02/15 00:47:27;;;;;;;106.08;57.83;;;;;;;-0.91;64.34;102158.69;461292;114;922804;-77
2022/02/15 00:48:31;;;;;;;103.24;59.56;;;;;;;-0.91;64.36;102156.02;461359;114;923579;-77
2022/02/15 00:49:35;;;;;;;106.35;59.38;;;;;;;-0.92;64.44;102157.83;460974;114;922519;-79
2022/02/15 00:50:38;;;;;;;104.54;59.35;;;;;;;-0.92;64.51;102163.19;461136;113;922906;-80
2022/02/15 00:51:41;;;;;;;102.78;57.88;;;;;;;-0.91;64.61;102167.59;462039;114;922784;-79
2022/02/15 00:52:44;;;;;;;105.44;60.18;;;;;;;-0.88;64.59;102163.83;462022;114;922605;-79
2022/02/15 00:53:47;;;;;;;105.53;60.05;;;;;;;-0.88;64.47;102169.18;461924;114;923151;-78
2022/02/15 00:54:50;;;;;;;106.07;60.51;;;;;;;-0.88;64.36;102166.50;460757;114;922583;-80
2022/02/15 00:55:53;;;;;;;99.87;58.06;;;;;;;-0.89;64.22;102162.14;461894;114;922955;-79
2022/02/15 00:56:57;;;;;;;103.58;59.53;;;;;;;-0.91;64.18;102169.40;461475;114;922690;-80
2022/02/15 00:58:00;;;;;;;109.85;62.99;;;;;;;-0.93;64.14;102160.59;460838;113;922588;-79
2022/02/15 00:59:03;;;;;;;114.94;66.04;;;;;;;-0.94;64.24;102172.30;460030;114;923516;-78
2022/02/15 01:00:09;;;;;;;111.47;62.80;;;;;;;-0.94;64.31;102170.45;461006;113;922586;-79
2022/02/15 01:01:12;;;;;;;107.45;60.78;;;;;;;-0.92;64.34;102173.89;460904;113;922571;-79
2022/02/15 01:02:16;;;;;;;111.08;61.85;;;;;;;-0.90;64.32;102165.77;461432;114;922768;-79
2022/02/15 01:03:19;;;;;;;100.64;60.71;;;;;;;-0.87;64.31;102170.91;460881;113;922766;-79
2022/02/15 01:04:22;;;;;;;107.77;59.80;;;;;;;-0.86;64.24;102165.45;461153;114;922579;-79
2022/02/15 01:05:26;;;;;;;118.67;67.32;;;;;;;-0.82;64.26;102174.12;461123;114;922611;-79
2022/02/15 01:06:29;;;;;;;116.99;65.78;;;;;;;-0.79;64.11;102171.27;461061;114;923050;-78
2022/02/15 01:07:32;;;;;;;112.96;62.90;;;;;;;-0.77;64.00;102176.53;462163;114;930609;-78
2022/02/15 01:08:35;;;;;;;110.68;61.23;;;;;;;-0.74;63.80;102169.13;461147;114;922615;-78
2022/02/15 01:09:39;;;;;;;104.40;58.54;;;;;;;-0.74;63.80;102169.13;460697;113;922829;-80
2022/02/15 01:10:42;;;;;;;95.11;53.64;;;;;;;-0.73;63.67;102173.53;460815;113;922641;-79
2022/02/15 01:11:45;;;;;;;97.46;55.09;;;;;;;-0.73;63.60;102176.21;461926;114;930325;-78
2022/02/15 01:12:49;;;;;;;95.61;55.06;;;;;;;-0.72;63.53;102177.94;461739;114;922557;-80
2022/02/15 01:13:52;;;;;;;100.52;54.91;;;;;;;-0.71;63.46;102166.23;461465;114;922412;-76
2022/02/15 01:14:55;;;;;;;106.73;56.14;;;;;;;-0.71;63.37;102171.59;461567;114;923270;-79
2022/02/15 01:15:58;;;;;;;103.97;59.53;;;;;;;-0.72;63.28;102169.03;461518;112;922992;-78
2022/02/15 01:17:02;;;;;;;109.73;60.37;;;;;;;-0.73;63.15;102173.53;461679;114;922799;-79
2022/02/15 01:18:05;;;;;;;103.97;57.16;;;;;;;-0.75;63.05;102174.58;461614;114;922598;-79
2022/02/15 01:19:08;;;;;;;102.92;56.61;;;;;;;-0.78;62.95;102172.13;460905;113;922743;-79
2022/02/15 01:20:12;;;;;;;100.71;58.31;;;;;;;-0.81;62.88;102177.67;462310;113;922564;-79
2022/02/15 01:21:16;;;;;;;104.87;58.48;;;;;;;-0.86;62.81;102175.30;461886;114;930612;-76
2022/02/15 01:22:19;;;;;;;97.26;55.80;;;;;;;-0.90;62.78;102173.80;460728;114;930914;-78
2022/02/15 01:23:22;;;;;;;99.22;57.43;;;;;;;-0.93;62.73;102179.34;460952;114;922600;-80
2022/02/15 01:24:25;;;;;;;100.44;54.25;;;;;;;-0.97;62.69;102181.38;461419;114;922808;-78
2022/02/15 01:25:28;;;;;;;100.80;53.46;;;;;;;-0.99;62.64;102185.96;462085;113;923211;-77
2022/02/15 01:26:32;;;;;;;91.21;52.59;;;;;;;-1.03;62.64;102181.78;460648;113;922572;-78
2022/02/15 01:27:35;;;;;;;86.30;50.07;;;;;;;-1.03;62.63;102186.27;461797;114;922699;-80
2022/02/15 01:28:38;;;;;;;95.11;51.19;;;;;;;-1.06;62.58;102179.31;445611;117;923125;-78
2022/02/15 01:29:41;;;;;;;85.17;49.38;;;;;;;-1.08;62.50;102183.04;460383;114;922636;-78
2022/02/15 01:30:45;;;;;;;88.99;49.27;;;;;;;-1.11;62.41;102177.91;451456;116;923063;-79
2022/02/15 01:31:48;;;;;;;83.93;49.83;;;;;;;-1.15;62.40;102173.69;461867;114;922579;-79
2022/02/15 01:32:51;;;;;;;82.06;47.44;;;;;;;-1.18;62.36;102182.80;438398;119;923371;-79
2022/02/15 01:33:54;;;;;;;78.86;47.24;;;;;;;-1.21;62.45;102179.47;454647;114;923020;-80
2022/02/15 01:34:58;;;;;;;79.86;45.36;;;;;;;-1.22;62.48;102185.77;460336;114;922768;-78
2022/02/15 01:36:02;;;;;;;71.73;43.26;;;;;;;-1.26;62.50;102185.95;453710;116;922649;-77
2022/02/15 01:37:05;;;;;;;66.95;39.74;;;;;;;-1.30;62.50;102184.45;445833;118;922913;-79
2022/02/15 01:38:08;;;;;;;69.24;40.64;;;;;;;-1.31;62.53;102188.07;445608;116;924911;-78
2022/02/15 01:39:11;;;;;;;68.63;39.66;;;;;;;-1.32;62.51;102188.16;453666;115;922672;-79
2022/02/15 01:40:16;;;;;;;68.46;40.47;;;;;;;-1.35;62.50;102188.38;454278;116;922506;-80
2022/02/15 01:41:19;;;;;;;69.71;42.00;;;;;;;-1.37;62.51;102188.47;454172;116;931009;-80
2022/02/15 01:42:22;;;;;;;72.99;41.18;;;;;;;-1.37;62.65;102196.49;454419;115;923177;-78
2022/02/15 01:43:26;;;;;;;79.03;41.98;;;;;;;-1.37;62.75;102198.30;453126;116;922535;-78
2022/02/15 01:44:30;;;;;;;64.46;39.31;;;;;;;-1.37;62.81;102200.98;453370;115;922890;-79
2022/02/15 01:45:33;;;;;;;74.71;41.34;;;;;;;-1.38;62.91;102197.44;453761;116;922794;-78
2022/02/15 01:46:38;;;;;;;66.77;38.60;;;;;;;-1.37;63.00;102199.16;443192;117;930628;-80
2022/02/15 01:47:41;;;;;;;83.40;44.35;;;;;;;-1.35;63.02;102191.91;443286;116;922600;-80
2022/02/15 01:48:47;;;;;;;86.65;44.57;;;;;;;-1.34;63.00;102192.77;453232;116;922912;-77
2022/02/15 01:49:52;;;;;;;90.30;44.43;;;;;;;-1.34;62.98;102196.31;445772;117;922877;-79
2022/02/15 01:50:58;;;;;;;109.01;48.91;;;;;;;-1.33;63.03;102198.03;445815;116;923136;-78
2022/02/15 01:52:00;;;;;;;105.04;51.21;;;;;;;-1.31;63.05;102196.09;452882;116;930897;-79
2022/02/15 01:53:04;;;;;;;115.88;52.54;;;;;;;-1.29;63.04;102190.66;453178;116;922626;-76
2022/02/15 01:54:07;;;;;;;100.91;50.75;;;;;;;-1.28;63.02;102193.24;445776;117;922736;-79
2022/02/15 01:55:14;;;;;;;110.57;52.74;;;;;;;-1.27;63.04;102191.42;439144;118;930330;-78
2022/02/15 01:56:19;;;;;;;98.34;48.72;;;;;;;-1.24;63.04;102198.38;447190;116;930709;-78
2022/02/15 01:57:23;;;;;;;93.26;46.94;;;;;;;-1.21;63.12;102201.70;443168;118;922877;-79
2022/02/15 01:58:28;;;;;;;85.37;44.53;;;;;;;-1.19;62.99;102201.61;444641;116;930626;-79
2022/02/15 01:59:32;;;;;;;92.39;44.48;;;;;;;-1.17;63.02;102205.06;444869;118;922617;-78
2022/02/15 02:00:36;;;;;;;81.61;43.47;;;;;;;-1.15;62.95;102203.98;444306;118;930566;-77
2022/02/15 02:01:41;;;;;;;82.19;43.44;;;;;;;-1.15;62.83;102200.45;445323;118;922708;-78
2022/02/15 02:02:47;;;;;;;74.39;41.16;;;;;;;-1.14;62.80;102202.17;437397;119;922668;-78
2022/02/15 02:03:52;;;;;;;68.37;39.64;;;;;;;-1.15;62.72;102203.98;430923;121;923322;-76
2022/02/15 02:06:18;;;;;;;63.49;36.05;;;;;;;-1.13;62.68;102204.75;448085;115;923049;-76
2022/02/15 02:07:21;;;;;;;70.25;36.13;;;;;;;-1.14;62.64;102211.06;451683;115;922498;-76
2022/02/15 02:08:27;;;;;;;57.51;33.41;;;;;;;-1.13;62.70;102202.08;453872;114;922507;-77
2022/02/15 02:09:30;;;;;;;62.56;33.81;;;;;;;-1.13;62.66;102211.92;453827;116;923273;-76
2022/02/15 02:10:33;;;;;;;64.25;35.14;;;;;;;-1.11;62.64;102213.55;452596;115;922512;-77
2022/02/15 02:11:38;;;;;;;61.89;34.56;;;;;;;-1.10;62.53;102217.09;444962;117;930427;-75
2022/02/15 02:12:46;;;;;;;56.57;34.06;;;;;;;-1.10;62.49;102219.77;445921;116;922720;-77
2022/02/15 02:13:50;;;;;;;71.42;37.50;;;;;;;-1.11;62.45;102226.94;440144;118;922578;-79
2022/02/15 02:15:07;;;;;;;60.38;37.22;;;;;;;-1.10;62.38;102219.77;441809;118;922718;-79
2022/02/15 02:16:32;;;;;;;62.94;35.73;;;;;;;-1.12;62.38;102221.67;414668;125;922901;-78
2022/02/15 02:17:37;;;;;;;63.03;36.65;;;;;;;-1.13;62.32;102219.95;412737;126;923294;-78
2022/02/15 02:18:40;;;;;;;66.05;35.60;;;;;;;-1.16;62.30;102215.67;449961;115;922549;-75
2022/02/15 02:19:44;;;;;;;65.61;36.68;;;;;;;-1.16;62.26;102217.49;453030;115;922959;-77
2022/02/15 02:20:48;;;;;;;57.58;37.23;;;;;;;-1.18;62.23;102216.72;453123;116;930598;-77
2022/02/15 02:21:53;;;;;;;51.76;34.35;;;;;;;-1.19;62.26;102209.64;454019;116;923485;-77
2022/02/15 02:22:56;;;;;;;63.01;35.88;;;;;;;-1.20;62.22;102210.59;453702;115;922601;-78
2022/02/15 02:23:59;;;;;;;59.06;35.68;;;;;;;-1.21;62.14;102206.23;454441;116;922974;-79
2022/02/15 02:25:04;;;;;;;62.79;35.30;;;;;;;-1.22;62.17;102207.18;443669;118;922763;-73
2022/02/15 02:26:08;;;;;;;61.84;34.68;;;;;;;-1.24;62.16;102217.98;444021;118;924227;-74
2022/02/15 02:27:16;;;;;;;59.81;33.26;;;;;;;-1.25;62.16;102216.25;444131;117;922533;-78
2022/02/15 02:28:21;;;;;;;59.34;35.50;;;;;;;-1.26;62.21;102212.72;444739;118;922590;-76
2022/02/15 02:29:24;;;;;;;56.31;33.37;;;;;;;-1.25;62.21;102216.25;443892;118;922891;-78
2022/02/15 02:30:28;;;;;;;56.28;32.69;;;;;;;-1.26;62.13;102220.74;445496;118;922651;-79
2022/02/15 02:31:33;;;;;;;48.91;30.78;;;;;;;-1.26;62.10;102214.53;437434;119;923215;-77
2022/02/15 02:32:43;;;;;;;50.56;30.93;;;;;;;-1.26;62.23;102217.20;435423;119;922670;-76
2022/02/15 02:33:46;;;;;;;47.81;30.45;;;;;;;-1.27;62.25;102208.31;440008;118;922575;-78
2022/02/15 02:34:51;;;;;;;49.65;31.62;;;;;;;-1.26;62.25;102215.39;441390;118;930431;-79
2022/02/15 02:35:59;;;;;;;54.13;32.78;;;;;;;-1.26;62.26;102202.02;442859;116;923098;-77
2022/02/15 02:37:02;;;;;;;50.58;30.72;;;;;;;-1.24;62.11;102203.73;446057;117;922629;-78
2022/02/15 02:38:05;;;;;;;56.37;32.40;;;;;;;-1.26;62.13;102210.03;438343;120;922834;-80
2022/02/15 02:39:08;;;;;;;56.52;31.86;;;;;;;-1.27;62.12;102208.31;437724;118;930657;-77
2022/02/15 02:40:12;;;;;;;47.14;31.17;;;;;;;-1.27;62.14;102202.96;446294;116;923025;-77
2022/02/15 02:41:16;;;;;;;47.59;30.31;;;;;;;-1.27;62.17;102213.66;445740;117;923418;-78
2022/02/15 02:42:26;;;;;;;48.35;29.46;;;;;;;-1.26;62.13;102210.03;445681;117;922582;-79
2022/02/15 02:43:28;;;;;;;50.22;28.77;;;;;;;-1.27;62.11;102216.34;445506;117;922742;-77
2022/02/15 02:44:32;;;;;;;48.92;29.03;;;;;;;-1.27;62.11;102213.66;429839;121;922804;-79
2022/02/15 02:45:36;;;;;;;48.78;30.52;;;;;;;-1.27;62.06;102216.34;448622;116;922673;-79
2022/02/15 02:46:39;;;;;;;44.51;28.69;;;;;;;-1.28;62.04;102216.47;456875;114;930330;-80
2022/02/15 02:47:44;;;;;;;45.48;29.43;;;;;;;-1.29;62.10;102212.06;457058;114;923002;-75
2022/02/15 02:48:48;;;;;;;65.23;37.62;;;;;;;-1.30;62.10;102213.88;457066;114;922545;-77
2022/02/15 02:49:52;;;;;;;75.54;41.39;;;;;;;-1.30;62.14;102215.69;454756;114;923210;-79
2022/02/15 02:50:55;;;;;;;84.85;49.05;;;;;;;-1.31;62.12;102213.97;445539;117;922631;-78
2022/02/15 02:52:00;;;;;;;89.57;52.35;;;;;;;-1.33;62.14;102210.55;447038;116;922699;-79
2022/02/15 02:53:09;;;;;;;94.11;52.96;;;;;;;-1.33;62.22;102214.09;446824;116;922952;-76
2022/02/15 02:54:10;;;;;;;85.28;50.21;;;;;;;-1.33;62.25;102216.77;449543;116;930822;-78
2022/02/15 02:55:15;;;;;;;80.74;49.36;;;;;;;-1.32;62.16;102213.11;448511;116;922563;-75
2022/02/15 02:56:18;;;;;;;83.05;47.06;;;;;;;-1.32;62.17;102218.45;438959;119;922620;-78
2022/02/15 02:57:21;;;;;;;74.62;42.24;;;;;;;-1.33;62.22;102211.41;436581;119;930364;-77
2022/02/15 02:58:25;;;;;;;77.99;43.42;;;;;;;-1.33;62.21;102222.11;442611;119;923117;-75
2022/02/15 02:59:28;;;;;;;48.61;30.82;;;;;;;-1.34;62.21;102225.74;438790;120;922521;-78
2022/02/15 03:00:34;;;;;;;40.97;27.53;;;;;;;-1.35;62.20;102215.99;436559;119;923064;-79
2022/02/15 03:01:46;;;;;;;38.86;26.52;;;;;;;-1.36;62.26;102222.30;445721;116;922711;-78
2022/02/15 03:02:50;;;;;;;42.18;27.26;;;;;;;-1.37;62.29;102217.03;436586;119;922821;-75
2022/02/15 03:03:53;;;;;;;44.74;28.34;;;;;;;-1.38;62.29;102210.82;443817;117;922535;-78
2022/02/15 03:04:56;;;;;;;45.25;28.25;;;;;;;-1.39;62.20;102206.45;442742;118;923329;-77
2022/02/15 03:05:59;;;;;;;46.85;27.26;;;;;;;-1.39;62.20;102205.59;437531;119;922703;-80
2022/02/15 03:07:04;;;;;;;50.83;28.84;;;;;;;-1.41;62.22;102207.49;438195;119;923222;-78
2022/02/15 03:08:08;;;;;;;39.51;28.76;;;;;;;-1.42;62.15;102213.80;439157;118;922663;-77
2022/02/15 03:09:11;;;;;;;42.79;28.11;;;;;;;-1.43;62.18;102214.75;445788;117;922958;-75
2022/02/15 03:10:15;;;;;;;37.44;26.40;;;;;;;-1.45;62.25;102212.19;446662;116;922936;-78
2022/02/15 03:11:18;;;;;;;38.08;26.38;;;;;;;-1.45;62.28;102204.17;444769;117;930913;-76
2022/02/15 03:12:23;;;;;;;37.98;26.99;;;;;;;-1.44;62.30;102210.38;438831;119;922734;-77
2022/02/15 03:13:27;;;;;;;38.77;26.41;;;;;;;-1.43;62.41;102214.75;439283;119;922699;-78
2022/02/15 03:14:30;;;;;;;40.43;26.17;;;;;;;-1.41;62.38;102215.52;439217;119;922636;-79
2022/02/15 03:15:33;;;;;;;50.18;29.69;;;;;;;-1.41;62.33;102205.68;439198;119;922717;-77
2022/02/15 03:16:38;;;;;;;44.99;29.04;;;;;;;-1.41;62.26;102210.16;440761;117;930358;-78
2022/02/15 03:17:41;;;;;;;38.17;28.23;;;;;;;-1.41;62.26;102210.16;447531;116;930451;-75
2022/02/15 03:18:46;;;;;;;37.24;28.12;;;;;;;-1.43;62.20;102209.39;446318;116;930657;-77
2022/02/15 03:19:51;;;;;;;48.43;29.14;;;;;;;-1.44;62.08;102211.23;449078;116;922736;-76
2022/02/15 03:20:54;;;;;;;39.34;27.51;;;;;;;-1.46;62.09;102213.14;447933;116;922622;-78
2022/02/15 03:21:59;;;;;;;39.76;27.24;;;;;;;-1.46;62.19;102210.47;447185;116;922785;-78
2022/02/15 03:23:02;;;;;;;43.96;28.91;;;;;;;-1.46;62.20;102199.77;446649;116;922555;-80
2022/02/15 03:24:06;;;;;;;51.98;30.33;;;;;;;-1.47;62.20;102206.06;446260;118;930378;-78
2022/02/15 03:25:10;;;;;;;45.41;28.72;;;;;;;-1.47;62.15;102207.88;445987;116;922642;-77
2022/02/15 03:26:14;;;;;;;51.14;30.15;;;;;;;-1.48;62.17;102204.34;438590;119;923163;-78
2022/02/15 03:27:17;;;;;;;51.00;31.15;;;;;;;-1.49;62.09;102210.64;446403;117;923239;-77
2022/02/15 03:28:21;;;;;;;47.97;29.73;;;;;;;-1.49;62.05;102204.47;445863;116;930881;-78
2022/02/15 03:29:24;;;;;;;48.14;30.46;;;;;;;-1.52;62.10;102208.18;445827;118;922745;-79
2022/02/15 03:30:27;;;;;;;51.31;30.19;;;;;;;-1.53;62.07;102213.62;436810;118;923075;-77
2022/02/15 03:31:31;;;;;;;55.58;31.39;;;;;;;-1.55;62.07;102218.23;439812;118;923126;-80
2022/02/15 03:32:35;;;;;;;51.16;30.22;;;;;;;-1.56;62.11;102213.83;439293;118;930655;-77
2022/02/15 03:33:38;;;;;;;54.19;31.54;;;;;;;-1.57;62.11;102210.28;446827;116;930386;-77
2022/02/15 03:34:42;;;;;;;44.24;30.06;;;;;;;-1.58;62.13;102211.23;446591;117;922773;-77
2022/02/15 03:35:45;;;;;;;47.77;29.84;;;;;;;-1.58;62.15;102216.59;434244;120;922694;-78
2022/02/15 03:36:50;;;;;;;47.54;30.46;;;;;;;-1.58;62.12;102216.59;453160;114;922882;-78
2022/02/15 03:37:53;;;;;;;45.38;29.23;;;;;;;-1.59;62.10;102217.53;462384;114;922632;-76
2022/02/15 03:38:57;;;;;;;48.18;29.32;;;;;;;-1.59;62.08;102222.02;461459;114;930411;-78
2022/02/15 03:40:01;;;;;;;49.55;29.60;;;;;;;-1.60;62.08;102221.20;461780;114;922769;-75
2022/02/15 03:43:54;;;;;;;41.61;28.41;;;;;;;-1.61;62.05;102232.84;461583;114;922551;-76
2022/02/15 03:44:59;;;;;;;42.09;27.46;;;;;;;-1.62;62.09;102222.23;460024;114;922650;-79
2022/02/15 03:46:23;;;;;;;40.67;27.78;;;;;;;-1.64;62.15;102219.64;461628;114;922552;-79
2022/02/15 03:47:26;;;;;;;43.94;28.62;;;;;;;-1.65;62.21;102225.11;452502;116;922707;-73
2022/02/15 03:48:30;;;;;;;41.14;26.73;;;;;;;-1.66;62.15;102220.72;453704;114;922501;-78
2022/02/15 03:49:33;;;;;;;47.44;28.17;;;;;;;-1.69;62.20;102219.94;462377;114;922612;-78
2022/02/15 03:50:37;;;;;;;38.20;27.58;;;;;;;-1.70;62.27;102212.00;460931;114;922706;-80
2022/02/15 03:51:41;;;;;;;48.06;28.98;;;;;;;-1.69;62.29;102222.61;451119;116;922689;-77
2022/02/15 03:52:45;;;;;;;42.71;28.11;;;;;;;-1.68;62.30;102218.12;461814;114;922517;-77
2022/02/15 03:53:48;;;;;;;51.37;29.69;;;;;;;-1.68;62.29;102218.12;462652;114;922544;-76
2022/02/15 03:54:52;;;;;;;45.45;29.22;;;;;;;-1.67;62.26;102221.66;451957;115;930372;-78
2022/02/15 03:55:55;;;;;;;52.23;28.86;;;;;;;-1.67;62.25;102222.53;451872;114;923299;-79
2022/02/15 03:56:58;;;;;;;45.05;29.46;;;;;;;-1.69;62.19;102219.94;461695;114;922603;-76
2022/02/15 03:58:03;;;;;;;44.68;28.25;;;;;;;-1.68;62.18;102210.11;453708;116;922770;-79
2022/02/15 03:59:07;;;;;;;46.74;28.80;;;;;;;-1.69;62.18;102219.08;453819;114;922612;-76
2022/02/15 04:00:13;;;;;;;52.83;29.86;;;;;;;-1.69;62.15;102214.59;460698;114;930312;-79
2022/02/15 04:01:18;;;;;;;47.30;29.71;;;;;;;-1.67;62.19;102221.66;461277;114;922836;-77
2022/02/15 04:02:21;;;;;;;48.57;30.08;;;;;;;-1.67;62.19;102217.17;460145;114;922643;-77
2022/02/15 04:03:26;;;;;;;50.71;32.13;;;;;;;-1.66;62.14;102218.91;458135;114;922747;-75
2022/02/15 04:04:32;;;;;;;53.67;32.28;;;;;;;-1.66;62.06;102216.23;452335;116;923065;-78
2022/02/15 04:05:35;;;;;;;50.39;32.85;;;;;;;-1.65;61.99;102215.25;448552;116;922573;-76
2022/02/15 04:06:39;;;;;;;55.87;33.92;;;;;;;-1.63;61.93;102223.18;452938;114;930596;-74
2022/02/15 04:07:42;;;;;;;51.51;34.62;;;;;;;-1.64;61.91;102222.32;451590;116;922991;-78
2022/02/15 04:08:45;;;;;;;55.66;33.56;;;;;;;-1.63;61.83;102220.51;452673;114;923147;-80
2022/02/15 04:09:49;;;;;;;42.69;30.09;;;;;;;-1.65;61.79;102225.94;462214;114;922538;-75
2022/02/15 04:10:52;;;;;;;48.06;32.12;;;;;;;-1.65;61.79;102223.27;461869;114;922601;-75
2022/02/15 04:11:57;;;;;;;49.14;30.80;;;;;;;-1.65;61.77;102225.94;459612;114;922509;-79
2022/02/15 04:13:02;;;;;;;54.51;34.74;;;;;;;-1.65;61.67;102230.46;459018;114;922639;-77
2022/02/15 04:14:05;;;;;;;51.92;32.51;;;;;;;-1.66;61.63;102226.06;461481;114;922483;-77
2022/02/15 04:15:09;;;;;;;50.57;31.52;;;;;;;-1.69;61.61;102219.94;460799;114;930544;-78
2022/02/15 04:16:15;;;;;;;45.27;28.26;;;;;;;-1.69;61.58;102219.94;460674;114;922925;-76
2022/02/15 04:17:18;;;;;;;46.30;29.61;;;;;;;-1.71;61.56;102221.84;460798;114;922837;-80
2022/02/15 04:18:21;;;;;;;50.55;30.52;;;;;;;-1.72;61.58;102225.49;461030;114;922714;-78
2022/02/15 04:19:25;;;;;;;52.69;31.75;;;;;;;-1.73;61.60;102225.58;449599;115;922491;-77
2022/02/15 04:20:29;;;;;;;48.38;30.90;;;;;;;-1.72;61.62;102224.62;452827;114;922894;-79
2022/02/15 04:21:33;;;;;;;46.22;29.95;;;;;;;-1.74;61.58;102222.05;459828;114;922728;-77
2022/02/15 04:22:36;;;;;;;43.58;28.62;;;;;;;-1.73;61.63;102223.77;459347;114;923575;-76
2022/02/15 04:23:41;;;;;;;47.53;28.78;;;;;;;-1.73;61.63;102222.91;460885;114;930194;-78
2022/02/15 04:24:44;;;;;;;46.14;28.44;;;;;;;-1.74;61.58;102230.06;458560;114;922783;-79
2022/02/15 04:25:48;;;;;;;38.75;28.28;;;;;;;-1.75;61.57;102231.02;461368;114;922443;-77
2022/02/15 04:26:53;;;;;;;43.64;29.01;;;;;;;-1.76;61.58;102231.97;460458;114;922636;-80
2022/02/15 04:27:56;;;;;;;49.11;30.77;;;;;;;-1.75;61.57;102228.34;460881;114;922591;-76
2022/02/15 04:29:01;;;;;;;46.74;29.76;;;;;;;-1.77;61.50;102221.39;461447;114;922463;-77
2022/02/15 04:30:09;;;;;;;49.44;30.10;;;;;;;-1.76;61.44;102225.75;459452;114;922531;-76
2022/02/15 04:31:12;;;;;;;47.83;31.18;;;;;;;-1.78;61.50;102228.55;460655;114;922583;-76
2022/02/15 04:32:16;;;;;;;48.21;29.61;;;;;;;-1.78;61.51;102231.22;451062;116;922457;-74
2022/02/15 04:33:18;;;;;;;50.76;29.05;;;;;;;-1.78;61.56;102230.36;450339;116;922924;-74
2022/02/15 04:34:22;;;;;;;53.09;30.36;;;;;;;-1.77;61.55;102232.08;459912;114;922753;-76
2022/02/15 04:35:25;;;;;;;46.66;30.33;;;;;;;-1.78;61.46;102233.89;461821;114;922630;-78
2022/02/15 04:36:29;;;;;;;51.61;30.42;;;;;;;-1.78;61.47;102236.56;460921;114;922978;-80
2022/02/15 04:37:34;;;;;;;51.76;30.38;;;;;;;-1.79;61.35;102234.84;458359;114;922546;-78
2022/02/15 04:38:38;;;;;;;51.77;32.46;;;;;;;-1.80;61.34;102234.92;461221;114;922554;-77
2022/02/15 04:39:41;;;;;;;52.67;31.77;;;;;;;-1.83;61.22;102233.33;452209;115;922678;-78
2022/02/15 04:40:47;;;;;;;57.06;33.83;;;;;;;-1.85;61.21;102231.69;452963;116;930442;-74
2022/02/15 04:41:52;;;;;;;53.72;33.23;;;;;;;-1.87;61.24;102234.44;459860;114;922262;-76
2022/02/15 04:42:56;;;;;;;51.35;33.05;;;;;;;-1.88;61.24;102237.23;460991;114;922372;-76
2022/02/15 04:44:00;;;;;;;51.12;31.64;;;;;;;-1.90;61.23;102239.99;460130;114;922495;-75
2022/02/15 04:45:04;;;;;;;48.51;31.34;;;;;;;-1.91;61.26;102243.61;453178;116;923062;-78
2022/02/15 04:46:09;;;;;;;45.00;30.15;;;;;;;-1.91;61.25;102242.75;459811;114;922142;-74
2022/02/15 04:47:13;;;;;;;50.67;32.25;;;;;;;-1.90;61.29;102247.15;463341;114;922397;-74
2022/02/15 04:48:16;;;;;;;50.61;31.61;;;;;;;-1.90;61.32;102244.47;463273;113;922588;-73
2022/02/15 04:49:19;;;;;;;43.23;29.42;;;;;;;-1.90;61.27;102256.03;461081;114;922258;-74
2022/02/15 04:50:23;;;;;;;42.84;28.51;;;;;;;-1.91;61.15;102246.28;460920;113;922119;-72
2022/02/15 04:51:26;;;;;;;45.39;30.02;;;;;;;-1.91;61.11;102242.75;454021;115;922146;-72